メインページ
METAR-TAF:

METAR-TAF

空港 :

バンクーバー, ブリティッシュコロンビア州, カナダ

バンクーバー国際空港

緯度: 49-11N, 経度: 123-10W, 海抜: 3m

現時点の気象観測

当レポートは1時間37分前の21:00(UTC)に作成
南東の風 8kt、から南/南東の間で変化する
気温 23°C
湿度 53%
気圧 1017 hPa
視程: 48.3km
高度4500ftの雲はほとんどない
高度22000ftの雲はほとんどない
高度25000ftの千切れ雲あり

METAR: CYVR 262100Z 14008KT 100V160 30SM FEW045 FEW220 BKN250 23/13 A3004 RMK CU1CI1CS5 CU TR CONTRAILS SLP173 DENSITY ALT 900FT

時間: 15:37 (22:37 UTC)

予報

当レポートは1時間59分前の20:38(UTC)に作成
予報は26日の 21時(UTC)から 27日の 24時(UTC)まで有効
南東の風 8kt
視程: 10km
高度4000ftの雲はほとんどない
高度25000ftの千切れ雲あり
26日の 22時(UTC)から 26日の 24時(UTC)まで徐々に
西/南西の風 6kt
27日の 0500時(UTC)から
東/南東の風 5kt
視程: 10km
高度4000ftの雲はほとんどない
高度20000ftの千切れ雲あり
27日の 0900時(UTC)から
の風 5kt
視程: 10km
高度1000ftの雲はほとんどない
高度4000ftの千切れ雲あり
27日の 1800時(UTC)から
南東の風 8kt
視程: 10km
高度4000ftの雲はほとんどない

TAF: CYVR 262038Z 2621/2724 14008KT P6SM FEW040 BKN250 BECMG 2622/2624 24006KT FM270500 11005KT P6SM FEW040 BKN200 FM270900 09005KT P6SM FEW010 BKN040 FM271800 14008KT P6SM FEW040 RMK NXT FCST BY 270000Z

4,000以上の空港の気象観測と天気予報(METAR報とTAF報)

利用可能な観測所は地図上に黄色い丸と赤い丸で示す。

丸の上にカーソルを重ねると観測所名を参照できる。

次にクリックすると気象観測と天気予報を参照できる。

マップの切り替え:黒色「×」印の緑ボタンをクリックして拡大、「-」印の緑ボタンをクリックして縮小、緑色の三角印をクリックして隣りの地図に切り替え


METAR-TAF: